sensor_id;sensor_type;location;lat;lon;timestamp;P1;durP1;ratioP1;P2;durP2;ratioP2
19402;SDS011;9837;48.888;8.998;2023-12-04T00:00:45;30.00;;;15.07;;
19402;SDS011;9837;48.888;8.998;2023-12-04T00:03:11;24.90;;;15.03;;
19402;SDS011;9837;48.888;8.998;2023-12-04T00:05:36;24.90;;;14.47;;
19402;SDS011;9837;48.888;8.998;2023-12-04T00:08:02;25.57;;;14.27;;
19402;SDS011;9837;48.888;8.998;2023-12-04T00:10:27;24.90;;;14.63;;
19402;SDS011;9837;48.888;8.998;2023-12-04T00:12:53;28.33;;;15.57;;
19402;SDS011;9837;48.888;8.998;2023-12-04T00:15:19;22.90;;;13.40;;
19402;SDS011;9837;48.888;8.998;2023-12-04T00:17:45;29.73;;;16.10;;
19402;SDS011;9837;48.888;8.998;2023-12-04T00:20:10;24.10;;;15.20;;
19402;SDS011;9837;48.888;8.998;2023-12-04T00:22:36;24.33;;;14.40;;
19402;SDS011;9837;48.888;8.998;2023-12-04T00:25:02;24.57;;;13.90;;
19402;SDS011;9837;48.888;8.998;2023-12-04T00:27:29;27.03;;;15.07;;
19402;SDS011;9837;48.888;8.998;2023-12-04T00:29:55;26.27;;;15.00;;
19402;SDS011;9837;48.888;8.998;2023-12-04T00:32:21;25.57;;;14.33;;
19402;SDS011;9837;48.888;8.998;2023-12-04T00:34:47;26.10;;;14.50;;
19402;SDS011;9837;48.888;8.998;2023-12-04T00:37:12;26.47;;;15.33;;
19402;SDS011;9837;48.888;8.998;2023-12-04T00:39:38;24.83;;;14.23;;
19402;SDS011;9837;48.888;8.998;2023-12-04T00:42:03;24.07;;;14.17;;
19402;SDS011;9837;48.888;8.998;2023-12-04T00:44:30;33.93;;;16.33;;
19402;SDS011;9837;48.888;8.998;2023-12-04T00:46:55;28.60;;;15.83;;
19402;SDS011;9837;48.888;8.998;2023-12-04T00:49:21;27.77;;;16.10;;
19402;SDS011;9837;48.888;8.998;2023-12-04T00:51:46;25.50;;;15.33;;
19402;SDS011;9837;48.888;8.998;2023-12-04T00:54:12;28.63;;;15.50;;
19402;SDS011;9837;48.888;8.998;2023-12-04T00:56:38;28.67;;;15.97;;
19402;SDS011;9837;48.888;8.998;2023-12-04T00:59:04;28.77;;;15.33;;
19402;SDS011;9837;48.888;8.998;2023-12-04T01:01:31;27.33;;;15.73;;
19402;SDS011;9837;48.888;8.998;2023-12-04T01:03:57;28.47;;;15.87;;
19402;SDS011;9837;48.888;8.998;2023-12-04T01:06:24;28.47;;;15.10;;
19402;SDS011;9837;48.888;8.998;2023-12-04T01:08:50;23.83;;;13.90;;
19402;SDS011;9837;48.888;8.998;2023-12-04T01:11:16;24.10;;;14.60;;
19402;SDS011;9837;48.888;8.998;2023-12-04T01:13:42;24.80;;;14.23;;
19402;SDS011;9837;48.888;8.998;2023-12-04T01:16:08;21.37;;;13.43;;
19402;SDS011;9837;48.888;8.998;2023-12-04T01:18:34;24.80;;;13.13;;
19402;SDS011;9837;48.888;8.998;2023-12-04T01:21:00;26.90;;;13.73;;
19402;SDS011;9837;48.888;8.998;2023-12-04T01:23:25;19.03;;;12.10;;
19402;SDS011;9837;48.888;8.998;2023-12-04T01:25:51;21.83;;;13.43;;
19402;SDS011;9837;48.888;8.998;2023-12-04T01:28:16;19.03;;;11.67;;
19402;SDS011;9837;48.888;8.998;2023-12-04T01:30:42;22.03;;;13.40;;
19402;SDS011;9837;48.888;8.998;2023-12-04T01:33:07;24.50;;;13.57;;
19402;SDS011;9837;48.888;8.998;2023-12-04T01:35:33;21.30;;;12.17;;
19402;SDS011;9837;48.888;8.998;2023-12-04T01:37:59;23.80;;;13.63;;
19402;SDS011;9837;48.888;8.998;2023-12-04T01:40:25;22.27;;;13.77;;
19402;SDS011;9837;48.888;8.998;2023-12-04T01:42:51;23.13;;;12.50;;
19402;SDS011;9837;48.888;8.998;2023-12-04T01:45:17;25.30;;;14.40;;
19402;SDS011;9837;48.888;8.998;2023-12-04T01:47:44;23.50;;;13.80;;
19402;SDS011;9837;48.888;8.998;2023-12-04T01:50:10;25.20;;;14.50;;
19402;SDS011;9837;48.888;8.998;2023-12-04T01:52:35;27.10;;;13.57;;
19402;SDS011;9837;48.888;8.998;2023-12-04T01:55:02;28.17;;;13.57;;
19402;SDS011;9837;48.888;8.998;2023-12-04T01:57:29;23.30;;;12.60;;
19402;SDS011;9837;48.888;8.998;2023-12-04T01:59:54;22.93;;;13.10;;
19402;SDS011;9837;48.888;8.998;2023-12-04T02:02:20;23.37;;;13.43;;
19402;SDS011;9837;48.888;8.998;2023-12-04T02:04:46;22.03;;;13.50;;
19402;SDS011;9837;48.888;8.998;2023-12-04T02:07:12;20.17;;;12.07;;
19402;SDS011;9837;48.888;8.998;2023-12-04T02:09:37;19.93;;;12.00;;
19402;SDS011;9837;48.888;8.998;2023-12-04T02:12:03;20.87;;;12.37;;
19402;SDS011;9837;48.888;8.998;2023-12-04T02:14:29;19.30;;;11.30;;
19402;SDS011;9837;48.888;8.998;2023-12-04T02:16:54;20.13;;;10.93;;
19402;SDS011;9837;48.888;8.998;2023-12-04T02:19:22;17.37;;;11.00;;
19402;SDS011;9837;48.888;8.998;2023-12-04T02:21:48;27.80;;;13.60;;
19402;SDS011;9837;48.888;8.998;2023-12-04T02:24:13;17.90;;;10.07;;
19402;SDS011;9837;48.888;8.998;2023-12-04T02:26:40;16.33;;;10.23;;
19402;SDS011;9837;48.888;8.998;2023-12-04T02:29:14;18.77;;;11.20;;
19402;SDS011;9837;48.888;8.998;2023-12-04T02:31:46;16.77;;;10.03;;
19402;SDS011;9837;48.888;8.998;2023-12-04T02:34:12;17.40;;;10.53;;
19402;SDS011;9837;48.888;8.998;2023-12-04T02:36:40;17.03;;;10.43;;
19402;SDS011;9837;48.888;8.998;2023-12-04T02:39:07;18.33;;;11.20;;
19402;SDS011;9837;48.888;8.998;2023-12-04T02:41:33;19.20;;;10.10;;
19402;SDS011;9837;48.888;8.998;2023-12-04T02:43:59;15.13;;;9.63;;
19402;SDS011;9837;48.888;8.998;2023-12-04T02:46:24;17.67;;;9.90;;
19402;SDS011;9837;48.888;8.998;2023-12-04T02:48:50;16.87;;;9.87;;
19402;SDS011;9837;48.888;8.998;2023-12-04T02:51:16;16.33;;;9.37;;
19402;SDS011;9837;48.888;8.998;2023-12-04T02:53:41;16.27;;;9.80;;
19402;SDS011;9837;48.888;8.998;2023-12-04T02:56:07;14.47;;;9.20;;
19402;SDS011;9837;48.888;8.998;2023-12-04T02:58:33;17.43;;;10.20;;
19402;SDS011;9837;48.888;8.998;2023-12-04T03:00:59;16.37;;;10.03;;
19402;SDS011;9837;48.888;8.998;2023-12-04T03:03:25;17.17;;;10.33;;
19402;SDS011;9837;48.888;8.998;2023-12-04T03:05:50;18.07;;;10.60;;
19402;SDS011;9837;48.888;8.998;2023-12-04T03:08:16;16.47;;;9.93;;
19402;SDS011;9837;48.888;8.998;2023-12-04T03:10:41;14.67;;;8.93;;
19402;SDS011;9837;48.888;8.998;2023-12-04T03:13:07;16.90;;;9.73;;
19402;SDS011;9837;48.888;8.998;2023-12-04T03:15:33;16.73;;;10.70;;
19402;SDS011;9837;48.888;8.998;2023-12-04T03:17:59;15.90;;;10.13;;
19402;SDS011;9837;48.888;8.998;2023-12-04T03:20:26;17.53;;;9.17;;
19402;SDS011;9837;48.888;8.998;2023-12-04T03:22:51;19.83;;;10.53;;
19402;SDS011;9837;48.888;8.998;2023-12-04T03:25:17;16.30;;;9.97;;
19402;SDS011;9837;48.888;8.998;2023-12-04T03:27:42;16.13;;;10.00;;
19402;SDS011;9837;48.888;8.998;2023-12-04T03:30:08;18.27;;;9.87;;
19402;SDS011;9837;48.888;8.998;2023-12-04T03:32:34;16.93;;;10.73;;
19402;SDS011;9837;48.888;8.998;2023-12-04T03:34:59;18.20;;;9.77;;
19402;SDS011;9837;48.888;8.998;2023-12-04T03:37:26;16.50;;;9.30;;
19402;SDS011;9837;48.888;8.998;2023-12-04T03:39:52;16.67;;;10.07;;
19402;SDS011;9837;48.888;8.998;2023-12-04T03:42:17;17.33;;;10.60;;
19402;SDS011;9837;48.888;8.998;2023-12-04T03:44:43;16.70;;;10.33;;
19402;SDS011;9837;48.888;8.998;2023-12-04T03:47:08;16.47;;;9.40;;
19402;SDS011;9837;48.888;8.998;2023-12-04T03:49:34;17.53;;;9.50;;
19402;SDS011;9837;48.888;8.998;2023-12-04T03:52:00;16.07;;;9.77;;
19402;SDS011;9837;48.888;8.998;2023-12-04T03:54:25;15.63;;;8.97;;
19402;SDS011;9837;48.888;8.998;2023-12-04T03:56:52;14.33;;;9.37;;
19402;SDS011;9837;48.888;8.998;2023-12-04T03:59:17;16.73;;;9.97;;
19402;SDS011;9837;48.888;8.998;2023-12-04T04:01:43;17.03;;;10.73;;
19402;SDS011;9837;48.888;8.998;2023-12-04T04:04:08;16.73;;;10.37;;
19402;SDS011;9837;48.888;8.998;2023-12-04T04:06:34;18.03;;;11.03;;
19402;SDS011;9837;48.888;8.998;2023-12-04T04:08:59;16.03;;;10.07;;
19402;SDS011;9837;48.888;8.998;2023-12-04T04:11:25;19.37;;;10.83;;
19402;SDS011;9837;48.888;8.998;2023-12-04T04:13:51;15.77;;;9.53;;
19402;SDS011;9837;48.888;8.998;2023-12-04T04:16:17;17.17;;;9.80;;
19402;SDS011;9837;48.888;8.998;2023-12-04T04:18:42;18.10;;;9.13;;
19402;SDS011;9837;48.888;8.998;2023-12-04T04:21:09;16.93;;;9.93;;
19402;SDS011;9837;48.888;8.998;2023-12-04T04:23:34;17.80;;;10.77;;
19402;SDS011;9837;48.888;8.998;2023-12-04T04:26:00;14.37;;;9.37;;
19402;SDS011;9837;48.888;8.998;2023-12-04T04:28:26;17.37;;;10.63;;
19402;SDS011;9837;48.888;8.998;2023-12-04T04:30:51;19.13;;;11.00;;
19402;SDS011;9837;48.888;8.998;2023-12-04T04:33:17;18.17;;;10.83;;
19402;SDS011;9837;48.888;8.998;2023-12-04T04:35:43;17.77;;;11.53;;
19402;SDS011;9837;48.888;8.998;2023-12-04T04:38:08;22.03;;;13.20;;
19402;SDS011;9837;48.888;8.998;2023-12-04T04:40:34;21.63;;;12.63;;
19402;SDS011;9837;48.888;8.998;2023-12-04T04:43:00;20.53;;;11.83;;
19402;SDS011;9837;48.888;8.998;2023-12-04T04:45:25;17.43;;;9.23;;
19402;SDS011;9837;48.888;8.998;2023-12-04T04:47:51;25.73;;;13.83;;
19402;SDS011;9837;48.888;8.998;2023-12-04T04:50:16;23.40;;;13.93;;
19402;SDS011;9837;48.888;8.998;2023-12-04T04:52:42;18.47;;;11.23;;
19402;SDS011;9837;48.888;8.998;2023-12-04T04:55:08;22.27;;;12.67;;
19402;SDS011;9837;48.888;8.998;2023-12-04T04:57:34;13.30;;;9.17;;
19402;SDS011;9837;48.888;8.998;2023-12-04T04:59:59;16.90;;;9.00;;
19402;SDS011;9837;48.888;8.998;2023-12-04T05:02:25;14.40;;;8.80;;
19402;SDS011;9837;48.888;8.998;2023-12-04T05:04:50;14.83;;;9.40;;
19402;SDS011;9837;48.888;8.998;2023-12-04T05:07:16;15.33;;;9.40;;
19402;SDS011;9837;48.888;8.998;2023-12-04T05:09:41;13.77;;;8.10;;
19402;SDS011;9837;48.888;8.998;2023-12-04T05:12:07;14.87;;;8.70;;
19402;SDS011;9837;48.888;8.998;2023-12-04T05:14:32;13.57;;;8.20;;
19402;SDS011;9837;48.888;8.998;2023-12-04T05:16:58;11.27;;;7.50;;
19402;SDS011;9837;48.888;8.998;2023-12-04T05:19:24;13.93;;;8.57;;
19402;SDS011;9837;48.888;8.998;2023-12-04T05:21:49;24.00;;;13.00;;
19402;SDS011;9837;48.888;8.998;2023-12-04T05:24:15;22.67;;;13.13;;
19402;SDS011;9837;48.888;8.998;2023-12-04T05:26:41;22.23;;;13.63;;
19402;SDS011;9837;48.888;8.998;2023-12-04T05:29:08;21.57;;;11.00;;
19402;SDS011;9837;48.888;8.998;2023-12-04T05:31:33;14.17;;;9.07;;
19402;SDS011;9837;48.888;8.998;2023-12-04T05:33:59;16.43;;;8.47;;
19402;SDS011;9837;48.888;8.998;2023-12-04T05:36:24;14.80;;;8.67;;
19402;SDS011;9837;48.888;8.998;2023-12-04T05:38:50;13.00;;;7.57;;
19402;SDS011;9837;48.888;8.998;2023-12-04T05:41:18;10.37;;;7.27;;
19402;SDS011;9837;48.888;8.998;2023-12-04T05:43:44;15.60;;;8.73;;
19402;SDS011;9837;48.888;8.998;2023-12-04T05:46:09;15.73;;;9.37;;
19402;SDS011;9837;48.888;8.998;2023-12-04T05:48:35;21.70;;;10.73;;
19402;SDS011;9837;48.888;8.998;2023-12-04T05:51:00;20.83;;;12.77;;
19402;SDS011;9837;48.888;8.998;2023-12-04T05:53:26;24.37;;;14.33;;
19402;SDS011;9837;48.888;8.998;2023-12-04T05:55:51;24.03;;;13.67;;
19402;SDS011;9837;48.888;8.998;2023-12-04T05:58:17;22.07;;;12.80;;
19402;SDS011;9837;48.888;8.998;2023-12-04T06:00:42;22.60;;;13.30;;
19402;SDS011;9837;48.888;8.998;2023-12-04T06:03:08;19.07;;;11.93;;
19402;SDS011;9837;48.888;8.998;2023-12-04T06:05:34;21.90;;;13.73;;
19402;SDS011;9837;48.888;8.998;2023-12-04T06:07:59;19.63;;;11.43;;
19402;SDS011;9837;48.888;8.998;2023-12-04T06:10:25;20.53;;;12.33;;
19402;SDS011;9837;48.888;8.998;2023-12-04T06:12:50;21.13;;;11.90;;
19402;SDS011;9837;48.888;8.998;2023-12-04T06:15:16;18.00;;;10.70;;
19402;SDS011;9837;48.888;8.998;2023-12-04T06:17:41;19.47;;;11.27;;
19402;SDS011;9837;48.888;8.998;2023-12-04T06:20:07;18.77;;;10.80;;
19402;SDS011;9837;48.888;8.998;2023-12-04T06:22:33;16.13;;;10.00;;
19402;SDS011;9837;48.888;8.998;2023-12-04T06:24:59;15.47;;;10.07;;
19402;SDS011;9837;48.888;8.998;2023-12-04T06:27:25;17.40;;;10.43;;
19402;SDS011;9837;48.888;8.998;2023-12-04T06:29:51;18.47;;;11.33;;
19402;SDS011;9837;48.888;8.998;2023-12-04T06:32:17;21.97;;;10.87;;
19402;SDS011;9837;48.888;8.998;2023-12-04T06:34:42;23.80;;;12.67;;
19402;SDS011;9837;48.888;8.998;2023-12-04T06:37:12;24.27;;;13.67;;
19402;SDS011;9837;48.888;8.998;2023-12-04T06:39:38;19.97;;;12.03;;
19402;SDS011;9837;48.888;8.998;2023-12-04T06:42:07;19.57;;;11.70;;
19402;SDS011;9837;48.888;8.998;2023-12-04T06:44:33;19.40;;;11.53;;
19402;SDS011;9837;48.888;8.998;2023-12-04T06:47:00;21.43;;;13.50;;
19402;SDS011;9837;48.888;8.998;2023-12-04T06:49:29;20.70;;;12.37;;
19402;SDS011;9837;48.888;8.998;2023-12-04T06:51:56;21.00;;;12.77;;
19402;SDS011;9837;48.888;8.998;2023-12-04T06:54:21;20.83;;;12.23;;
19402;SDS011;9837;48.888;8.998;2023-12-04T06:56:47;20.77;;;11.90;;
19402;SDS011;9837;48.888;8.998;2023-12-04T06:59:12;21.30;;;12.43;;
19402;SDS011;9837;48.888;8.998;2023-12-04T07:01:38;19.73;;;12.03;;
19402;SDS011;9837;48.888;8.998;2023-12-04T07:04:04;20.23;;;11.90;;
19402;SDS011;9837;48.888;8.998;2023-12-04T07:06:34;23.00;;;13.33;;
19402;SDS011;9837;48.888;8.998;2023-12-04T07:09:00;20.67;;;13.00;;
19402;SDS011;9837;48.888;8.998;2023-12-04T07:11:26;21.40;;;13.50;;
19402;SDS011;9837;48.888;8.998;2023-12-04T07:13:51;21.33;;;12.90;;
19402;SDS011;9837;48.888;8.998;2023-12-04T07:16:17;23.87;;;13.33;;
19402;SDS011;9837;48.888;8.998;2023-12-04T07:18:42;23.47;;;13.93;;
19402;SDS011;9837;48.888;8.998;2023-12-04T07:21:08;21.87;;;12.77;;
19402;SDS011;9837;48.888;8.998;2023-12-04T07:23:34;23.53;;;13.40;;
19402;SDS011;9837;48.888;8.998;2023-12-04T07:26:00;22.23;;;12.87;;
19402;SDS011;9837;48.888;8.998;2023-12-04T07:28:26;21.93;;;13.07;;
19402;SDS011;9837;48.888;8.998;2023-12-04T07:30:53;27.50;;;12.73;;
19402;SDS011;9837;48.888;8.998;2023-12-04T07:33:19;21.63;;;12.00;;
19402;SDS011;9837;48.888;8.998;2023-12-04T07:35:45;22.07;;;12.50;;
19402;SDS011;9837;48.888;8.998;2023-12-04T07:38:11;19.20;;;11.77;;
19402;SDS011;9837;48.888;8.998;2023-12-04T07:40:37;22.53;;;12.00;;
19402;SDS011;9837;48.888;8.998;2023-12-04T07:43:03;24.70;;;12.37;;
19402;SDS011;9837;48.888;8.998;2023-12-04T07:45:29;21.83;;;11.90;;
19402;SDS011;9837;48.888;8.998;2023-12-04T07:47:54;21.47;;;11.43;;
19402;SDS011;9837;48.888;8.998;2023-12-04T07:50:20;20.63;;;12.13;;
19402;SDS011;9837;48.888;8.998;2023-12-04T07:52:46;25.03;;;12.77;;
19402;SDS011;9837;48.888;8.998;2023-12-04T07:55:12;23.40;;;12.53;;
19402;SDS011;9837;48.888;8.998;2023-12-04T07:57:37;21.70;;;13.43;;
19402;SDS011;9837;48.888;8.998;2023-12-04T08:00:03;19.77;;;11.97;;
19402;SDS011;9837;48.888;8.998;2023-12-04T08:02:29;21.03;;;11.47;;
19402;SDS011;9837;48.888;8.998;2023-12-04T08:04:55;21.77;;;11.40;;
19402;SDS011;9837;48.888;8.998;2023-12-04T08:07:21;20.10;;;11.47;;
19402;SDS011;9837;48.888;8.998;2023-12-04T08:09:46;19.50;;;11.27;;
19402;SDS011;9837;48.888;8.998;2023-12-04T08:12:12;18.13;;;10.13;;
19402;SDS011;9837;48.888;8.998;2023-12-04T08:14:37;18.10;;;11.27;;
19402;SDS011;9837;48.888;8.998;2023-12-04T08:17:03;18.43;;;10.87;;
19402;SDS011;9837;48.888;8.998;2023-12-04T08:19:28;16.17;;;10.73;;
19402;SDS011;9837;48.888;8.998;2023-12-04T08:21:54;18.90;;;11.33;;
19402;SDS011;9837;48.888;8.998;2023-12-04T08:24:20;16.67;;;9.90;;
19402;SDS011;9837;48.888;8.998;2023-12-04T08:26:46;18.13;;;10.93;;
19402;SDS011;9837;48.888;8.998;2023-12-04T08:29:11;18.33;;;10.80;;
19402;SDS011;9837;48.888;8.998;2023-12-04T08:31:37;18.00;;;9.70;;
19402;SDS011;9837;48.888;8.998;2023-12-04T08:34:03;18.37;;;10.33;;
19402;SDS011;9837;48.888;8.998;2023-12-04T08:36:29;24.37;;;12.30;;
19402;SDS011;9837;48.888;8.998;2023-12-04T08:38:54;19.67;;;10.40;;
19402;SDS011;9837;48.888;8.998;2023-12-04T08:41:20;21.20;;;11.53;;
19402;SDS011;9837;48.888;8.998;2023-12-04T08:43:45;19.00;;;11.13;;
19402;SDS011;9837;48.888;8.998;2023-12-04T08:46:12;22.60;;;12.30;;
19402;SDS011;9837;48.888;8.998;2023-12-04T08:48:39;17.73;;;11.33;;
19402;SDS011;9837;48.888;8.998;2023-12-04T08:51:05;18.63;;;11.17;;
19402;SDS011;9837;48.888;8.998;2023-12-04T08:53:33;18.80;;;10.70;;
19402;SDS011;9837;48.888;8.998;2023-12-04T08:55:59;19.30;;;12.00;;
19402;SDS011;9837;48.888;8.998;2023-12-04T08:58:24;17.60;;;10.87;;
19402;SDS011;9837;48.888;8.998;2023-12-04T09:00:49;18.30;;;10.57;;
19402;SDS011;9837;48.888;8.998;2023-12-04T09:03:15;16.40;;;10.13;;
19402;SDS011;9837;48.888;8.998;2023-12-04T09:05:41;18.10;;;9.60;;
19402;SDS011;9837;48.888;8.998;2023-12-04T09:08:07;16.17;;;10.10;;
19402;SDS011;9837;48.888;8.998;2023-12-04T09:10:33;20.40;;;11.03;;
19402;SDS011;9837;48.888;8.998;2023-12-04T09:12:58;17.90;;;11.30;;
19402;SDS011;9837;48.888;8.998;2023-12-04T09:15:24;14.77;;;9.83;;
19402;SDS011;9837;48.888;8.998;2023-12-04T09:17:49;16.20;;;9.50;;
19402;SDS011;9837;48.888;8.998;2023-12-04T09:20:15;15.93;;;9.30;;
19402;SDS011;9837;48.888;8.998;2023-12-04T09:22:40;14.37;;;9.20;;
19402;SDS011;9837;48.888;8.998;2023-12-04T09:25:06;14.23;;;9.47;;
19402;SDS011;9837;48.888;8.998;2023-12-04T09:27:33;18.07;;;10.50;;
19402;SDS011;9837;48.888;8.998;2023-12-04T09:29:59;17.43;;;10.87;;
19402;SDS011;9837;48.888;8.998;2023-12-04T09:32:24;16.43;;;10.20;;
19402;SDS011;9837;48.888;8.998;2023-12-04T09:34:50;24.20;;;11.03;;
19402;SDS011;9837;48.888;8.998;2023-12-04T09:37:16;18.00;;;10.93;;
19402;SDS011;9837;48.888;8.998;2023-12-04T09:39:41;15.67;;;9.97;;
19402;SDS011;9837;48.888;8.998;2023-12-04T09:42:07;22.17;;;11.43;;
19402;SDS011;9837;48.888;8.998;2023-12-04T09:44:34;15.57;;;10.47;;
19402;SDS011;9837;48.888;8.998;2023-12-04T09:47:02;14.03;;;8.90;;
19402;SDS011;9837;48.888;8.998;2023-12-04T09:49:29;12.13;;;8.20;;
19402;SDS011;9837;48.888;8.998;2023-12-04T09:52:00;12.37;;;8.47;;
19402;SDS011;9837;48.888;8.998;2023-12-04T09:54:27;15.90;;;8.67;;
19402;SDS011;9837;48.888;8.998;2023-12-04T09:56:54;11.77;;;7.57;;
19402;SDS011;9837;48.888;8.998;2023-12-04T09:59:20;14.80;;;9.13;;
19402;SDS011;9837;48.888;8.998;2023-12-04T10:01:51;10.60;;;7.30;;
19402;SDS011;9837;48.888;8.998;2023-12-04T10:04:17;21.50;;;9.33;;
19402;SDS011;9837;48.888;8.998;2023-12-04T10:06:44;12.50;;;8.73;;
19402;SDS011;9837;48.888;8.998;2023-12-04T10:09:10;14.57;;;8.30;;
19402;SDS011;9837;48.888;8.998;2023-12-04T10:11:41;14.53;;;9.57;;
19402;SDS011;9837;48.888;8.998;2023-12-04T10:14:14;20.77;;;10.83;;
19402;SDS011;9837;48.888;8.998;2023-12-04T10:16:40;15.53;;;8.50;;
19402;SDS011;9837;48.888;8.998;2023-12-04T10:19:25;13.33;;;9.03;;
19402;SDS011;9837;48.888;8.998;2023-12-04T10:21:51;13.23;;;8.67;;
19402;SDS011;9837;48.888;8.998;2023-12-04T10:24:31;17.83;;;9.07;;
19402;SDS011;9837;48.888;8.998;2023-12-04T10:27:00;13.40;;;9.10;;
19402;SDS011;9837;48.888;8.998;2023-12-04T10:29:40;17.00;;;9.03;;
19402;SDS011;9837;48.888;8.998;2023-12-04T10:32:12;15.23;;;7.40;;
19402;SDS011;9837;48.888;8.998;2023-12-04T10:34:37;10.37;;;7.57;;
19402;SDS011;9837;48.888;8.998;2023-12-04T10:37:04;13.20;;;7.93;;
19402;SDS011;9837;48.888;8.998;2023-12-04T10:39:30;12.63;;;8.07;;
19402;SDS011;9837;48.888;8.998;2023-12-04T10:42:10;11.80;;;7.83;;
19402;SDS011;9837;48.888;8.998;2023-12-04T10:44:35;12.73;;;8.40;;
19402;SDS011;9837;48.888;8.998;2023-12-04T10:47:01;13.30;;;9.23;;
19402;SDS011;9837;48.888;8.998;2023-12-04T10:49:28;13.73;;;8.83;;
19402;SDS011;9837;48.888;8.998;2023-12-04T10:51:55;13.20;;;9.13;;
19402;SDS011;9837;48.888;8.998;2023-12-04T10:54:22;14.07;;;9.17;;
19402;SDS011;9837;48.888;8.998;2023-12-04T10:56:48;14.20;;;8.53;;
19402;SDS011;9837;48.888;8.998;2023-12-04T10:59:17;12.87;;;8.80;;
19402;SDS011;9837;48.888;8.998;2023-12-04T11:01:46;12.17;;;8.13;;
19402;SDS011;9837;48.888;8.998;2023-12-04T11:04:15;12.57;;;8.77;;
19402;SDS011;9837;48.888;8.998;2023-12-04T11:06:43;16.07;;;9.40;;
19402;SDS011;9837;48.888;8.998;2023-12-04T11:09:12;11.10;;;7.90;;
19402;SDS011;9837;48.888;8.998;2023-12-04T11:11:39;18.50;;;9.80;;
19402;SDS011;9837;48.888;8.998;2023-12-04T11:14:09;12.30;;;7.93;;
19402;SDS011;9837;48.888;8.998;2023-12-04T11:16:51;13.60;;;9.00;;
19402;SDS011;9837;48.888;8.998;2023-12-04T11:20:04;12.93;;;9.03;;
19402;SDS011;9837;48.888;8.998;2023-12-04T11:22:14;13.57;;;9.10;;
19402;SDS011;9837;48.888;8.998;2023-12-04T11:24:45;11.57;;;8.10;;
19402;SDS011;9837;48.888;8.998;2023-12-04T11:27:14;13.27;;;8.47;;
19402;SDS011;9837;48.888;8.998;2023-12-04T11:29:41;12.60;;;8.50;;
19402;SDS011;9837;48.888;8.998;2023-12-04T11:32:07;16.27;;;8.67;;
19402;SDS011;9837;48.888;8.998;2023-12-04T11:34:50;13.93;;;8.40;;
19402;SDS011;9837;48.888;8.998;2023-12-04T11:37:19;11.77;;;8.10;;
19402;SDS011;9837;48.888;8.998;2023-12-04T11:39:49;13.33;;;8.90;;
19402;SDS011;9837;48.888;8.998;2023-12-04T11:42:19;10.97;;;8.40;;
19402;SDS011;9837;48.888;8.998;2023-12-04T11:44:49;14.07;;;8.67;;
19402;SDS011;9837;48.888;8.998;2023-12-04T11:47:15;11.93;;;8.07;;
19402;SDS011;9837;48.888;8.998;2023-12-04T11:49:41;17.60;;;10.53;;
19402;SDS011;9837;48.888;8.998;2023-12-04T11:52:06;17.80;;;11.33;;
19402;SDS011;9837;48.888;8.998;2023-12-04T11:57:25;18.23;;;11.90;;
19402;SDS011;9837;48.888;8.998;2023-12-04T12:00:03;25.13;;;14.20;;
19402;SDS011;9837;48.888;8.998;2023-12-04T12:02:33;25.47;;;13.10;;
19402;SDS011;9837;48.888;8.998;2023-12-04T12:04:59;22.37;;;12.87;;
19402;SDS011;9837;48.888;8.998;2023-12-04T12:07:24;28.63;;;13.97;;
19402;SDS011;9837;48.888;8.998;2023-12-04T12:09:50;24.57;;;14.63;;
19402;SDS011;9837;48.888;8.998;2023-12-04T12:12:15;26.83;;;14.23;;
19402;SDS011;9837;48.888;8.998;2023-12-04T12:14:42;33.57;;;15.50;;
19402;SDS011;9837;48.888;8.998;2023-12-04T12:17:07;26.27;;;14.30;;
19402;SDS011;9837;48.888;8.998;2023-12-04T12:19:33;25.73;;;14.60;;
19402;SDS011;9837;48.888;8.998;2023-12-04T12:21:59;23.47;;;14.67;;
19402;SDS011;9837;48.888;8.998;2023-12-04T12:24:25;28.30;;;16.07;;
19402;SDS011;9837;48.888;8.998;2023-12-04T12:26:51;27.87;;;15.10;;
19402;SDS011;9837;48.888;8.998;2023-12-04T12:29:17;25.07;;;15.20;;
19402;SDS011;9837;48.888;8.998;2023-12-04T12:31:42;22.10;;;13.93;;
19402;SDS011;9837;48.888;8.998;2023-12-04T12:34:08;32.27;;;16.87;;
19402;SDS011;9837;48.888;8.998;2023-12-04T12:36:33;21.00;;;14.00;;
19402;SDS011;9837;48.888;8.998;2023-12-04T12:39:00;23.10;;;13.33;;
19402;SDS011;9837;48.888;8.998;2023-12-04T12:41:28;22.90;;;13.40;;
19402;SDS011;9837;48.888;8.998;2023-12-04T12:43:54;25.43;;;13.87;;
19402;SDS011;9837;48.888;8.998;2023-12-04T12:46:20;29.20;;;14.90;;
19402;SDS011;9837;48.888;8.998;2023-12-04T12:48:46;21.57;;;13.93;;
19402;SDS011;9837;48.888;8.998;2023-12-04T12:51:12;21.87;;;14.13;;
19402;SDS011;9837;48.888;8.998;2023-12-04T12:53:38;22.53;;;14.30;;
19402;SDS011;9837;48.888;8.998;2023-12-04T12:56:04;21.87;;;13.67;;
19402;SDS011;9837;48.888;8.998;2023-12-04T12:58:31;18.17;;;12.23;;
19402;SDS011;9837;48.888;8.998;2023-12-04T13:00:57;21.47;;;13.53;;
19402;SDS011;9837;48.888;8.998;2023-12-04T13:03:22;22.37;;;13.53;;
19402;SDS011;9837;48.888;8.998;2023-12-04T13:05:48;21.77;;;13.70;;
19402;SDS011;9837;48.888;8.998;2023-12-04T13:08:13;24.23;;;16.17;;
19402;SDS011;9837;48.888;8.998;2023-12-04T13:10:40;29.73;;;16.47;;
19402;SDS011;9837;48.888;8.998;2023-12-04T13:13:09;25.77;;;15.97;;
19402;SDS011;9837;48.888;8.998;2023-12-04T13:15:36;24.10;;;14.47;;
19402;SDS011;9837;48.888;8.998;2023-12-04T13:18:01;25.63;;;15.47;;
19402;SDS011;9837;48.888;8.998;2023-12-04T13:20:27;26.90;;;16.13;;
19402;SDS011;9837;48.888;8.998;2023-12-04T13:22:52;24.13;;;15.40;;
19402;SDS011;9837;48.888;8.998;2023-12-04T13:25:18;24.73;;;15.93;;
19402;SDS011;9837;48.888;8.998;2023-12-04T13:27:45;23.10;;;15.60;;
19402;SDS011;9837;48.888;8.998;2023-12-04T13:30:11;27.07;;;15.47;;
19402;SDS011;9837;48.888;8.998;2023-12-04T13:32:37;25.67;;;15.33;;
19402;SDS011;9837;48.888;8.998;2023-12-04T13:35:03;25.40;;;14.27;;
19402;SDS011;9837;48.888;8.998;2023-12-04T13:37:30;28.70;;;17.60;;
19402;SDS011;9837;48.888;8.998;2023-12-04T13:39:56;27.10;;;16.43;;
19402;SDS011;9837;48.888;8.998;2023-12-04T13:42:31;24.80;;;15.60;;
19402;SDS011;9837;48.888;8.998;2023-12-04T13:45:16;21.37;;;13.93;;
19402;SDS011;9837;48.888;8.998;2023-12-04T13:47:41;26.43;;;14.80;;
19402;SDS011;9837;48.888;8.998;2023-12-04T13:50:07;22.10;;;13.70;;
19402;SDS011;9837;48.888;8.998;2023-12-04T13:52:36;20.03;;;13.47;;
19402;SDS011;9837;48.888;8.998;2023-12-04T13:55:03;23.47;;;15.80;;
19402;SDS011;9837;48.888;8.998;2023-12-04T13:57:39;26.23;;;15.13;;
19402;SDS011;9837;48.888;8.998;2023-12-04T14:00:23;23.40;;;15.37;;
19402;SDS011;9837;48.888;8.998;2023-12-04T14:02:48;22.87;;;14.37;;
19402;SDS011;9837;48.888;8.998;2023-12-04T14:05:18;23.10;;;14.87;;
19402;SDS011;9837;48.888;8.998;2023-12-04T14:07:45;25.13;;;15.00;;
19402;SDS011;9837;48.888;8.998;2023-12-04T14:10:12;25.17;;;16.53;;
19402;SDS011;9837;48.888;8.998;2023-12-04T14:12:39;30.50;;;17.07;;
19402;SDS011;9837;48.888;8.998;2023-12-04T14:15:05;25.73;;;15.67;;
19402;SDS011;9837;48.888;8.998;2023-12-04T14:17:30;24.60;;;15.90;;
19402;SDS011;9837;48.888;8.998;2023-12-04T14:19:56;32.83;;;17.23;;
19402;SDS011;9837;48.888;8.998;2023-12-04T14:22:21;29.23;;;19.17;;
19402;SDS011;9837;48.888;8.998;2023-12-04T14:24:47;30.07;;;17.93;;
19402;SDS011;9837;48.888;8.998;2023-12-04T14:27:13;27.90;;;16.00;;
19402;SDS011;9837;48.888;8.998;2023-12-04T14:29:42;25.40;;;16.27;;
19402;SDS011;9837;48.888;8.998;2023-12-04T14:32:09;30.07;;;16.73;;
19402;SDS011;9837;48.888;8.998;2023-12-04T14:34:35;25.00;;;16.97;;
19402;SDS011;9837;48.888;8.998;2023-12-04T14:37:01;27.63;;;18.17;;